Time;durP1;ratioP1;P1;durP2;ratioP2;P2;SDS_P1;SDS_P2;PMS_P1;PMS_P2;Temp;Humidity;BMP_temperature;BMP_pressure;BME280_temperature;BME280_humidity;BME280_pressure;Samples;Min_cycle;Max_cycle;Signal;HPM_P1;HPM_P2
2023/06/14 00:01:39;;;;;;;;;;;;;;;15.11;53.56;101149.40;105549;1302;74406;-85
2023/06/14 00:04:25;;;;;;;;;;;;;;;15.10;53.48;101145.26;105596;1296;68654;-85
2023/06/14 00:07:13;;;;;;;;;;;;;;;15.05;53.55;101145.79;105580;1298;72650;-86
2023/06/14 00:09:59;;;;;;;;;;;;;;;15.01;53.64;101147.96;105642;1297;59892;-86
2023/06/14 00:12:45;;;;;;;;;;;;;;;14.94;53.69;101150.05;105556;1297;59990;-86
2023/06/14 00:15:31;;;;;;;;;;;;;;;14.95;53.78;101146.91;105529;1300;75237;-86
2023/06/14 00:18:17;;;;;;;;;;;;;;;14.97;53.61;101148.23;105610;1299;68296;-85
2023/06/14 00:21:03;;;;;;;;;;;;;;;15.00;53.70;101150.77;105573;1298;71395;-86
2023/06/14 00:23:49;;;;;;;;;;;;;;;15.00;53.86;101152.85;105557;1297;59815;-85
2023/06/14 00:26:35;;;;;;;;;;;;;;;14.99;53.86;101151.30;105507;1296;68303;-85
2023/06/14 00:29:21;;;;;;;;;;;;;;;14.99;53.95;101149.76;105501;1297;74393;-85
2023/06/14 00:32:07;;;;;;;;;;;;;;;14.98;53.94;101149.08;105519;1297;67539;-85
2023/06/14 00:34:53;;;;;;;;;;;;;;;14.97;54.10;101154.83;105527;1297;71516;-85
2023/06/14 00:37:39;;;;;;;;;;;;;;;14.97;54.13;101153.28;105421;1299;61528;-86
2023/06/14 00:40:25;;;;;;;;;;;;;;;14.99;54.15;101152.02;105445;1299;59841;-86
2023/06/14 00:43:11;;;;;;;;;;;;;;;14.98;54.17;101156.05;105664;1297;74172;-86
2023/06/14 00:45:57;;;;;;;;;;;;;;;14.99;54.36;101153.21;105528;1297;68719;-86
2023/06/14 00:48:44;;;;;;;;;;;;;;;14.99;54.28;101153.05;105445;1300;72374;-86
2023/06/14 00:51:30;;;;;;;;;;;;;;;15.01;54.31;101147.45;105528;1297;60338;-86
2023/06/14 00:54:16;;;;;;;;;;;;;;;15.04;54.26;101144.59;105594;1297;59930;-86
2023/06/14 00:57:02;;;;;;;;;;;;;;;15.07;54.31;101147.61;105564;1297;75511;-86
2023/06/14 00:59:48;;;;;;;;;;;;;;;15.08;54.45;101145.13;105561;1300;66437;-86
2023/06/14 01:02:36;;;;;;;;;;;;;;;15.08;54.42;101144.99;105517;1297;71337;-86
2023/06/14 01:05:24;;;;;;;;;;;;;;;15.05;54.60;101144.55;105514;1297;61054;-86
2023/06/14 01:08:31;;;;;;;;;;;;;;;15.03;54.59;101143.05;105631;1297;59781;-86
2023/06/14 01:11:37;;;;;;;;;;;;;;;15.04;54.72;101145.27;105511;1298;74018;-86
2023/06/14 01:14:23;;;;;;;;;;;;;;;15.05;54.75;101146.12;105596;1297;68208;-86
2023/06/14 01:17:16;;;;;;;;;;;;;;;15.07;54.77;101146.59;105506;1297;72386;-86
2023/06/14 01:20:03;;;;;;;;;;;;;;;15.10;54.80;101144.04;105564;1296;59914;-86
2023/06/14 01:22:52;;;;;;;;;;;;;;;15.13;54.80;101142.40;105579;1298;59854;-86
2023/06/14 01:25:40;;;;;;;;;;;;;;;15.15;54.83;101139.56;105561;1297;74913;-86
2023/06/14 01:28:31;;;;;;;;;;;;;;;15.15;54.82;101139.92;105489;1297;68440;-86
2023/06/14 01:31:21;;;;;;;;;;;;;;;15.14;54.93;101140.98;105479;1297;71841;-86
2023/06/14 01:34:08;;;;;;;;;;;;;;;15.15;55.05;101134.38;105564;1297;60990;-86
2023/06/14 01:36:54;;;;;;;;;;;;;;;15.15;55.10;101119.95;105590;1297;60293;-86
2023/06/14 01:39:42;;;;;;;;;;;;;;;15.17;55.10;101117.65;105535;1297;75361;-86
2023/06/14 01:42:28;;;;;;;;;;;;;;;15.16;55.18;101122.54;105492;1297;67419;-86
2023/06/14 01:45:14;;;;;;;;;;;;;;;15.14;55.19;101121.02;105519;1298;71432;-86
2023/06/14 01:48:01;;;;;;;;;;;;;;;15.15;55.27;101120.13;105543;1297;59846;-85
2023/06/14 01:50:47;;;;;;;;;;;;;;;15.17;55.34;101123.73;105486;1296;59858;-86
2023/06/14 01:53:33;;;;;;;;;;;;;;;15.18;55.29;101119.70;105529;1300;73892;-86
2023/06/14 01:56:19;;;;;;;;;;;;;;;15.18;55.29;101115.18;105557;1298;68542;-86
2023/06/14 01:59:05;;;;;;;;;;;;;;;15.19;55.27;101110.11;105456;1297;71516;-86
2023/06/14 02:01:51;;;;;;;;;;;;;;;15.20;55.30;101109.89;105527;1297;59934;-86
2023/06/14 02:04:38;;;;;;;;;;;;;;;15.20;55.32;101108.70;105554;1297;60120;-86
2023/06/14 02:07:24;;;;;;;;;;;;;;;15.18;55.37;101103.88;105583;1297;75836;-86
2023/06/14 02:10:11;;;;;;;;;;;;;;;15.19;55.38;101109.24;105620;1296;68536;-86
2023/06/14 02:12:57;;;;;;;;;;;;;;;15.21;55.30;101102.77;105474;1297;71912;-86
2023/06/14 02:15:43;;;;;;;;;;;;;;;15.23;55.42;101103.41;105466;1297;59950;-86
2023/06/14 02:18:29;;;;;;;;;;;;;;;15.22;55.52;101107.77;105545;1296;59946;-86
2023/06/14 02:21:15;;;;;;;;;;;;;;;15.22;55.59;101101.54;105519;1300;73986;-86
2023/06/14 02:24:01;;;;;;;;;;;;;;;15.19;55.60;101104.40;105434;1299;67937;-86
2023/06/14 02:26:47;;;;;;;;;;;;;;;15.13;55.68;101101.09;105576;1297;71669;-86
2023/06/14 02:29:33;;;;;;;;;;;;;;;15.05;55.62;101101.32;105541;1297;59683;-86
2023/06/14 02:32:19;;;;;;;;;;;;;;;15.03;55.78;101103.30;105475;1297;59698;-87
2023/06/14 02:35:06;;;;;;;;;;;;;;;15.02;55.81;101100.36;105542;1298;74248;-86
2023/06/14 02:37:52;;;;;;;;;;;;;;;15.03;55.85;101097.39;105499;1298;67515;-86
2023/06/14 02:40:40;;;;;;;;;;;;;;;15.04;55.89;101098.23;105510;1298;73373;-86
2023/06/14 02:43:28;;;;;;;;;;;;;;;15.09;55.83;101099.61;105554;1296;60045;-86
2023/06/14 02:46:14;;;;;;;;;;;;;;;15.14;55.87;101101.23;105505;1297;60026;-87
2023/06/14 02:49:01;;;;;;;;;;;;;;;15.16;55.96;101100.64;105566;1297;74009;-86
2023/06/14 02:51:48;;;;;;;;;;;;;;;15.17;55.95;101100.09;105626;1297;67214;-87
2023/06/14 02:54:34;;;;;;;;;;;;;;;15.17;56.03;101100.28;105579;1297;71111;-86
2023/06/14 02:57:23;;;;;;;;;;;;;;;15.15;56.04;101102.58;105496;1299;60223;-85
2023/06/14 03:00:12;;;;;;;;;;;;;;;15.16;56.14;101096.11;105474;1300;59517;-86
2023/06/14 03:03:01;;;;;;;;;;;;;;;15.17;56.11;101099.41;105498;1296;76222;-87
2023/06/14 03:05:49;;;;;;;;;;;;;;;15.18;56.11;101100.05;105499;1298;68558;-86
2023/06/14 03:08:38;;;;;;;;;;;;;;;15.19;56.14;101099.71;105388;1298;71448;-86
2023/06/14 03:11:25;;;;;;;;;;;;;;;15.18;56.15;101103.89;105518;1297;59962;-86
2023/06/14 03:14:11;;;;;;;;;;;;;;;15.18;56.15;101100.08;105535;1297;60709;-86
2023/06/14 03:16:57;;;;;;;;;;;;;;;15.16;56.25;101102.91;105422;1296;75223;-86
2023/06/14 03:19:43;;;;;;;;;;;;;;;15.15;56.23;101104.84;105523;1296;67384;-87
2023/06/14 03:22:29;;;;;;;;;;;;;;;15.16;56.34;101101.52;105518;1296;71416;-86
2023/06/14 03:25:16;;;;;;;;;;;;;;;15.15;56.38;101098.75;105592;1297;59889;-87
2023/06/14 03:28:02;;;;;;;;;;;;;;;15.16;56.34;101096.48;105615;1296;60125;-86
2023/06/14 03:30:48;;;;;;;;;;;;;;;15.17;56.30;101103.58;105447;1297;72982;-86
2023/06/14 03:33:35;;;;;;;;;;;;;;;15.17;56.44;101104.44;105508;1297;67458;-86
2023/06/14 03:36:20;;;;;;;;;;;;;;;15.16;56.49;101103.27;105529;1296;71110;-86
2023/06/14 03:39:07;;;;;;;;;;;;;;;15.15;56.48;101101.35;105515;1296;59616;-86
2023/06/14 03:41:53;;;;;;;;;;;;;;;15.16;56.55;101098.20;105561;1297;59925;-86
2023/06/14 03:44:39;;;;;;;;;;;;;;;15.19;56.64;101098.45;105601;1296;75162;-86
2023/06/14 03:47:27;;;;;;;;;;;;;;;15.23;56.63;101102.20;105525;1296;68661;-86
2023/06/14 03:50:13;;;;;;;;;;;;;;;15.22;56.67;101109.52;105567;1296;71508;-86
2023/06/14 03:53:01;;;;;;;;;;;;;;;15.21;56.80;101113.18;105548;1296;59873;-86
2023/06/14 03:55:48;;;;;;;;;;;;;;;15.20;56.80;101112.69;105482;1295;60235;-85
2023/06/14 03:58:39;;;;;;;;;;;;;;;15.23;56.92;101114.36;105428;1299;81646;-85
2023/06/14 04:01:29;;;;;;;;;;;;;;;15.27;56.92;101111.48;105406;1297;68605;-85
2023/06/14 04:04:18;;;;;;;;;;;;;;;15.28;57.02;101111.62;105510;1296;71114;-86
2023/06/14 04:07:04;;;;;;;;;;;;;;;15.31;56.95;101117.10;105486;1296;60238;-85
2023/06/14 04:09:50;;;;;;;;;;;;;;;15.32;56.94;101115.67;105529;1297;60020;-85
2023/06/14 04:12:36;;;;;;;;;;;;;;;15.36;57.02;101111.23;105482;1298;74023;-86
2023/06/14 04:15:23;;;;;;;;;;;;;;;15.36;56.97;101113.98;105525;1297;67472;-86
2023/06/14 04:18:10;;;;;;;;;;;;;;;15.38;57.05;101122.45;105594;1297;71179;-85
2023/06/14 04:20:56;;;;;;;;;;;;;;;15.36;57.07;101122.17;105342;1303;59828;-85
2023/06/14 04:23:43;;;;;;;;;;;;;;;15.37;56.87;101124.91;105465;1297;60365;-85
2023/06/14 04:26:33;;;;;;;;;;;;;;;15.36;57.00;101127.20;105415;1296;75323;-85
2023/06/14 04:29:21;;;;;;;;;;;;;;;15.34;57.06;101123.45;105478;1297;67559;-86
2023/06/14 04:32:09;;;;;;;;;;;;;;;15.35;57.10;101123.58;105522;1297;71393;-85
2023/06/14 04:34:54;;;;;;;;;;;;;;;15.37;57.18;101124.40;105547;1296;59909;-85
2023/06/14 04:37:41;;;;;;;;;;;;;;;15.41;57.20;101131.75;105379;1297;61331;-86
2023/06/14 04:40:25;;;;;;;;;;;;;;;15.43;57.24;101132.73;105385;1297;74260;-85
2023/06/14 04:43:11;;;;;;;;;;;;;;;15.44;57.20;101134.45;105437;1297;68612;-86
2023/06/14 04:45:56;;;;;;;;;;;;;;;15.45;57.29;101133.55;105456;1297;72557;-86
2023/06/14 04:48:42;;;;;;;;;;;;;;;15.48;57.19;101131.02;105355;1298;60554;-86
2023/06/14 04:51:29;;;;;;;;;;;;;;;15.50;57.36;101133.05;105388;1297;59967;-86
2023/06/14 04:54:14;;;;;;;;;;;;;;;15.53;57.37;101136.63;105400;1296;74709;-86
2023/06/14 04:56:59;;;;;;;;;;;;;;;15.57;57.34;101143.52;105426;1297;68462;-86
2023/06/14 04:59:44;;;;;;;;;;;;;;;15.59;57.41;101150.91;105467;1297;72623;-86
2023/06/14 05:02:32;;;;;;;;;;;;;;;15.62;57.49;101156.55;105260;1297;60530;-87
2023/06/14 05:05:36;;;;;;;;;;;;;;;15.67;57.50;101159.19;105506;1296;59646;-87
2023/06/14 05:08:43;;;;;;;;;;;;;;;15.75;57.52;101154.25;105630;1297;75331;-90
2023/06/14 05:11:33;;;;;;;;;;;;;;;15.81;57.57;101148.70;105586;1296;68689;-89
2023/06/14 05:14:39;;;;;;;;;;;;;;;15.85;57.34;101148.58;105458;1296;71269;-87
2023/06/14 05:17:28;;;;;;;;;;;;;;;15.91;57.31;101147.18;105511;1297;59793;-87
2023/06/14 05:20:15;;;;;;;;;;;;;;;15.95;57.49;101144.12;105602;1296;59744;-87
2023/06/14 05:23:01;;;;;;;;;;;;;;;15.98;57.47;101141.94;105471;1296;75114;-86
2023/06/14 05:25:47;;;;;;;;;;;;;;;16.01;57.57;101141.34;105519;1297;68660;-86
2023/06/14 05:28:35;;;;;;;;;;;;;;;16.04;57.42;101138.64;105462;1298;71401;-86
2023/06/14 05:31:23;;;;;;;;;;;;;;;16.08;57.43;101141.45;105502;1297;60125;-84
2023/06/14 05:34:09;;;;;;;;;;;;;;;16.12;57.48;101140.61;105567;1297;60020;-84
2023/06/14 05:36:56;;;;;;;;;;;;;;;16.13;57.35;101145.62;105492;1297;74638;-84
2023/06/14 05:39:42;;;;;;;;;;;;;;;16.15;57.32;101145.91;105517;1297;67484;-86
2023/06/14 05:42:28;;;;;;;;;;;;;;;16.21;57.50;101148.68;105495;1297;72617;-85
2023/06/14 05:45:16;;;;;;;;;;;;;;;16.27;57.28;101146.61;105493;1298;60264;-86
2023/06/14 05:48:04;;;;;;;;;;;;;;;16.34;57.31;101147.77;105533;1297;59869;-86
2023/06/14 05:50:50;;;;;;;;;;;;;;;16.40;57.29;101140.08;105481;1297;75184;-86
2023/06/14 05:53:34;;;;;;;;;;;;;;;16.47;57.57;101142.65;105433;1296;67407;-86
2023/06/14 05:56:19;;;;;;;;;;;;;;;16.54;57.33;101145.05;105370;1299;71428;-86
2023/06/14 05:59:04;;;;;;;;;;;;;;;16.66;57.34;101150.06;105444;1296;59859;-86
2023/06/14 06:01:48;;;;;;;;;;;;;;;16.77;57.25;101153.35;105249;1302;60041;-86
2023/06/14 06:04:32;;;;;;;;;;;;;;;16.88;57.26;101154.02;105390;1297;74188;-86
2023/06/14 06:07:17;;;;;;;;;;;;;;;16.98;57.17;101156.83;105408;1296;67464;-86
2023/06/14 06:10:01;;;;;;;;;;;;;;;17.05;57.11;101152.41;105286;1300;71243;-86
2023/06/14 06:12:47;;;;;;;;;;;;;;;17.09;57.21;101155.04;105272;1298;60133;-86
2023/06/14 06:15:31;;;;;;;;;;;;;;;17.14;57.02;101158.01;105371;1296;60243;-87
2023/06/14 06:18:16;;;;;;;;;;;;;;;17.18;57.08;101161.17;105422;1297;74836;-85
2023/06/14 06:21:00;;;;;;;;;;;;;;;17.21;57.08;101164.91;105456;1296;67458;-86
2023/06/14 06:23:45;;;;;;;;;;;;;;;17.25;57.00;101169.81;105416;1296;72596;-85
2023/06/14 06:26:30;;;;;;;;;;;;;;;17.26;56.75;101166.83;105510;1296;60102;-85
2023/06/14 06:29:14;;;;;;;;;;;;;;;17.23;56.81;101168.85;105634;1296;60074;-86
2023/06/14 06:31:59;;;;;;;;;;;;;;;17.19;56.74;101167.57;105348;1297;74187;-86
2023/06/14 06:34:45;;;;;;;;;;;;;;;17.14;56.81;101171.23;105363;1296;68071;-86
2023/06/14 06:37:31;;;;;;;;;;;;;;;17.14;56.82;101172.48;105390;1297;72630;-86
2023/06/14 06:40:17;;;;;;;;;;;;;;;17.16;56.80;101176.55;105355;1297;59793;-85
2023/06/14 06:43:03;;;;;;;;;;;;;;;17.22;56.74;101178.80;105408;1296;59742;-86
2023/06/14 06:45:50;;;;;;;;;;;;;;;17.32;56.79;101171.47;105421;1297;74240;-87
2023/06/14 06:48:36;;;;;;;;;;;;;;;17.47;56.84;101169.70;105062;1297;562570;-87
2023/06/14 06:51:23;;;;;;;;;;;;;;;17.68;56.88;101165.31;105432;1299;73393;-87
2023/06/14 06:54:09;;;;;;;;;;;;;;;17.85;56.65;101171.15;105355;1297;59941;-87
2023/06/14 06:56:55;;;;;;;;;;;;;;;18.00;56.54;101177.90;105413;1298;59475;-87
2023/06/14 06:59:41;;;;;;;;;;;;;;;18.15;56.54;101179.24;105509;1297;74316;-87
2023/06/14 07:02:27;;;;;;;;;;;;;;;18.42;56.18;101184.97;105467;1297;68134;-87
2023/06/14 07:05:13;;;;;;;;;;;;;;;18.82;56.43;101188.61;105449;1296;72682;-87
2023/06/14 07:07:59;;;;;;;;;;;;;;;19.68;56.41;101190.81;105517;1296;60117;-87
2023/06/14 07:10:46;;;;;;;;;;;;;;;20.63;55.62;101182.93;105534;1297;59884;-87
2023/06/14 07:13:32;;;;;;;;;;;;;;;20.83;55.13;101184.85;105549;1297;74219;-87
2023/06/14 07:16:17;;;;;;;;;;;;;;;20.94;55.05;101186.61;105467;1297;67536;-87
2023/06/14 07:19:04;;;;;;;;;;;;;;;21.12;55.10;101194.27;105382;1297;71534;-87
2023/06/14 07:21:50;;;;;;;;;;;;;;;22.67;55.09;101193.74;105415;1296;60208;-88
2023/06/14 07:24:36;;;;;;;;;;;;;;;23.69;53.96;101192.80;105526;1297;60077;-87
2023/06/14 07:27:22;;;;;;;;;;;;;;;23.99;53.69;101193.92;105494;1297;75462;-88
2023/06/14 07:30:08;;;;;;;;;;;;;;;24.29;53.75;101188.33;105427;1298;69503;-88
2023/06/14 07:32:54;;;;;;;;;;;;;;;25.53;53.31;101188.80;105476;1297;73165;-88
2023/06/14 07:35:43;;;;;;;;;;;;;;;26.09;52.17;101186.59;105400;1296;60054;-88
2023/06/14 07:38:28;;;;;;;;;;;;;;;26.35;52.38;101187.89;105346;1296;59815;-88
2023/06/14 07:41:14;;;;;;;;;;;;;;;26.45;52.23;101189.68;105485;1297;75304;-88
2023/06/14 07:44:00;;;;;;;;;;;;;;;27.07;51.99;101195.28;105450;1297;68629;-88
2023/06/14 07:46:49;;;;;;;;;;;;;;;28.06;51.10;101191.68;105476;1298;71395;-87
2023/06/14 07:49:34;;;;;;;;;;;;;;;27.93;50.50;101192.62;105436;1297;59856;-88
2023/06/14 07:52:21;;;;;;;;;;;;;;;27.67;50.70;101193.04;105338;1297;60762;-87
2023/06/14 07:55:07;;;;;;;;;;;;;;;27.94;50.40;101191.25;105357;1297;74236;-89
2023/06/14 07:57:53;;;;;;;;;;;;;;;27.86;49.81;101194.80;105579;1296;68449;-88
2023/06/14 08:00:39;;;;;;;;;;;;;;;27.48;49.49;101197.23;105450;1296;71483;-88
2023/06/14 08:03:25;;;;;;;;;;;;;;;27.01;48.93;101189.17;105385;1296;59974;-88
2023/06/14 08:06:11;;;;;;;;;;;;;;;26.83;49.42;101186.41;105435;1297;60078;-88
2023/06/14 08:08:57;;;;;;;;;;;;;;;26.84;49.14;101185.84;105532;1297;75343;-88
2023/06/14 08:11:43;;;;;;;;;;;;;;;26.10;49.02;101190.79;105487;1297;67995;-88
2023/06/14 08:14:29;;;;;;;;;;;;;;;26.36;49.08;101185.35;105445;1296;71507;-88
2023/06/14 08:17:15;;;;;;;;;;;;;;;26.99;48.55;101180.65;105532;1296;60215;-87
2023/06/14 08:20:01;;;;;;;;;;;;;;;27.47;48.75;101182.73;105531;1297;60603;-88
2023/06/14 08:22:48;;;;;;;;;;;;;;;29.02;47.76;101184.46;105407;1297;75444;-88
2023/06/14 08:25:34;;;;;;;;;;;;;;;28.96;46.94;101183.96;105410;1297;68629;-87
2023/06/14 08:28:20;;;;;;;;;;;;;;;28.12;47.38;101183.09;105469;1298;70487;-86
2023/06/14 08:31:06;;;;;;;;;;;;;;;27.50;47.50;101186.98;105453;1296;59922;-88
2023/06/14 08:33:52;;;;;;;;;;;;;;;26.94;47.41;101187.20;105569;1296;59556;-87
2023/06/14 08:36:38;;;;;;;;;;;;;;;26.32;47.12;101187.97;105502;1298;74471;-87
2023/06/14 08:39:24;;;;;;;;;;;;;;;25.72;47.05;101186.77;105456;1297;69759;-87
2023/06/14 08:42:10;;;;;;;;;;;;;;;25.18;46.96;101187.87;105346;1296;71203;-87
2023/06/14 08:44:56;;;;;;;;;;;;;;;24.75;46.83;101187.56;105347;1297;61128;-87
2023/06/14 08:47:42;;;;;;;;;;;;;;;24.38;46.68;101187.06;105458;1298;59879;-86
2023/06/14 08:50:31;;;;;;;;;;;;;;;23.86;46.61;101188.23;105438;1297;76232;-86
2023/06/14 08:53:19;;;;;;;;;;;;;;;23.50;46.71;101186.41;105362;1297;68361;-87
2023/06/14 08:56:05;;;;;;;;;;;;;;;23.37;46.66;101183.30;105547;1297;70278;-87
2023/06/14 08:58:52;;;;;;;;;;;;;;;23.31;46.54;101181.62;105389;1298;59946;-87
2023/06/14 09:01:39;;;;;;;;;;;;;;;23.23;46.26;101189.61;105404;1297;60045;-87
2023/06/14 09:04:25;;;;;;;;;;;;;;;23.17;46.16;101190.16;105495;1297;76048;-86
2023/06/14 09:07:12;;;;;;;;;;;;;;;23.11;46.19;101190.52;105592;1296;67126;-87
2023/06/14 09:10:09;;;;;;;;;;;;;;;23.14;46.08;101197.58;105404;1297;71923;-87
2023/06/14 09:12:56;;;;;;;;;;;;;;;23.23;45.83;101195.98;105524;1297;59878;-87
2023/06/14 09:15:42;;;;;;;;;;;;;;;23.32;45.85;101192.23;105488;1298;59874;-87
2023/06/14 09:18:34;;;;;;;;;;;;;;;23.42;45.76;101190.71;105331;1296;74006;-87
2023/06/14 09:21:21;;;;;;;;;;;;;;;23.52;45.62;101182.58;105359;1297;67303;-87
2023/06/14 09:24:13;;;;;;;;;;;;;;;23.63;45.69;101175.26;105291;1297;70502;-87
2023/06/14 09:26:59;;;;;;;;;;;;;;;23.72;45.47;101175.21;105379;1297;60571;-87
2023/06/14 09:29:45;;;;;;;;;;;;;;;23.75;45.45;101176.05;105504;1296;60991;-87
2023/06/14 09:32:31;;;;;;;;;;;;;;;23.64;45.23;101174.67;105516;1297;74173;-87
2023/06/14 09:35:17;;;;;;;;;;;;;;;23.53;45.27;101169.35;105579;1296;68009;-87
2023/06/14 09:38:04;;;;;;;;;;;;;;;23.44;45.20;101176.91;105481;1300;71953;-87
2023/06/14 09:40:50;;;;;;;;;;;;;;;23.38;45.18;101177.30;105482;1296;59761;-87
2023/06/14 09:43:38;;;;;;;;;;;;;;;23.35;45.12;101174.68;105508;1297;59860;-85
2023/06/14 09:46:24;;;;;;;;;;;;;;;23.35;45.16;101169.53;105399;1298;75037;-86
2023/06/14 09:49:10;;;;;;;;;;;;;;;23.28;45.00;101169.27;105349;1297;68643;-83
2023/06/14 09:51:57;;;;;;;;;;;;;;;23.20;45.15;101165.36;105279;1298;72388;-86
2023/06/14 09:54:46;;;;;;;;;;;;;;;23.20;44.83;101160.95;105549;1297;60294;-86
2023/06/14 09:57:34;;;;;;;;;;;;;;;23.13;44.91;101155.05;105406;1297;60407;-87
2023/06/14 10:00:23;;;;;;;;;;;;;;;23.15;44.94;101155.12;105364;1297;75657;-87
2023/06/14 10:03:13;;;;;;;;;;;;;;;23.21;44.94;101154.76;105427;1297;68399;-86
2023/06/14 10:06:02;;;;;;;;;;;;;;;23.28;44.74;101154.67;105340;1298;71193;-86
2023/06/14 10:08:48;;;;;;;;;;;;;;;23.30;44.67;101156.66;105355;1297;60200;-86
2023/06/14 10:11:35;;;;;;;;;;;;;;;23.26;44.60;101158.13;105351;1296;59904;-86
2023/06/14 10:14:21;;;;;;;;;;;;;;;23.21;44.60;101155.80;105380;1300;75721;-86
2023/06/14 10:17:11;;;;;;;;;;;;;;;23.24;44.64;101153.89;105313;1297;67877;-86
2023/06/14 10:20:17;;;;;;;;;;;;;;;23.24;44.61;101151.77;105422;1297;72359;-86
2023/06/14 10:23:08;;;;;;;;;;;;;;;23.27;44.59;101151.02;105385;1297;60170;-86
2023/06/14 10:25:56;;;;;;;;;;;;;;;23.35;44.60;101154.27;105467;1296;60267;-86
2023/06/14 10:28:55;;;;;;;;;;;;;;;23.49;44.68;101151.46;105405;1296;74713;-86
2023/06/14 10:31:44;;;;;;;;;;;;;;;23.66;44.58;101152.85;105469;1297;68133;-86
2023/06/14 10:34:30;;;;;;;;;;;;;;;23.79;44.47;101147.65;105326;1296;71949;-86
2023/06/14 10:37:16;;;;;;;;;;;;;;;23.94;44.33;101152.52;105423;1297;60207;-86
2023/06/14 10:40:03;;;;;;;;;;;;;;;24.00;44.30;101147.38;105474;1297;60475;-86
2023/06/14 10:42:52;;;;;;;;;;;;;;;24.05;44.23;101148.45;105409;1296;74849;-86
2023/06/14 10:45:58;;;;;;;;;;;;;;;24.09;44.12;101145.52;105482;1296;67440;-86
2023/06/14 10:48:44;;;;;;;;;;;;;;;24.12;44.14;101143.08;105444;1298;73001;-86
2023/06/14 10:51:45;;;;;;;;;;;;;;;24.19;44.05;101141.59;105477;1297;60064;-86
2023/06/14 10:54:31;;;;;;;;;;;;;;;24.22;44.00;101134.71;105416;1298;60318;-86
2023/06/14 10:57:16;;;;;;;;;;;;;;;24.31;44.00;101135.02;105412;1298;74256;-86
2023/06/14 11:00:22;;;;;;;;;;;;;;;24.30;43.75;101131.70;105373;1297;67277;-86
2023/06/14 11:03:13;;;;;;;;;;;;;;;24.30;43.88;101123.80;105417;1297;72382;-86
2023/06/14 11:05:59;;;;;;;;;;;;;;;24.37;43.71;101125.77;105523;1297;59930;-86
2023/06/14 11:09:05;;;;;;;;;;;;;;;24.38;43.60;101124.11;105501;1297;60109;-86
2023/06/14 11:11:51;;;;;;;;;;;;;;;24.41;43.66;101123.40;105521;1298;74210;-86
2023/06/14 11:14:38;;;;;;;;;;;;;;;24.47;43.66;101122.48;105456;1297;67817;-86
2023/06/14 11:17:24;;;;;;;;;;;;;;;24.53;43.55;101121.70;105553;1296;70821;-86
2023/06/14 11:20:15;;;;;;;;;;;;;;;24.51;43.48;101118.65;105485;1297;60095;-86
2023/06/14 11:23:02;;;;;;;;;;;;;;;24.46;43.43;101117.73;105593;1297;59941;-86
2023/06/14 11:25:51;;;;;;;;;;;;;;;24.37;43.32;101117.30;105513;1297;74667;-86
2023/06/14 11:28:38;;;;;;;;;;;;;;;24.30;43.31;101116.90;105509;1297;68498;-86
2023/06/14 11:31:26;;;;;;;;;;;;;;;24.27;43.26;101117.28;105430;1296;71393;-88
2023/06/14 11:34:24;;;;;;;;;;;;;;;24.11;43.20;101122.15;105523;1296;59552;-86
2023/06/14 11:37:10;;;;;;;;;;;;;;;24.03;42.97;101110.52;105467;1298;59884;-87
2023/06/14 11:39:58;;;;;;;;;;;;;;;23.96;42.86;101109.20;105509;1297;74453;-86
2023/06/14 11:42:44;;;;;;;;;;;;;;;23.88;42.90;101110.30;105623;1296;68325;-86
2023/06/14 11:45:30;;;;;;;;;;;;;;;23.94;42.98;101107.09;105478;1296;72930;-86
2023/06/14 11:48:16;;;;;;;;;;;;;;;24.07;42.99;101103.90;105466;1297;60365;-86
2023/06/14 11:51:02;;;;;;;;;;;;;;;24.16;42.61;101099.29;105535;1297;59970;-86
2023/06/14 11:53:48;;;;;;;;;;;;;;;24.30;42.55;101095.58;105612;1297;74392;-86
2023/06/14 11:56:34;;;;;;;;;;;;;;;24.41;42.55;101092.17;105489;1297;67416;-87
2023/06/14 11:59:21;;;;;;;;;;;;;;;24.47;42.27;101094.81;105408;1297;73187;-85
2023/06/14 12:02:07;;;;;;;;;;;;;;;24.50;42.40;101096.35;105364;1296;60380;-84
2023/06/14 12:04:54;;;;;;;;;;;;;;;24.52;42.19;101096.60;105408;1297;60198;-85
2023/06/14 12:07:40;;;;;;;;;;;;;;;24.47;42.10;101092.72;105383;1297;75395;-84
2023/06/14 12:10:26;;;;;;;;;;;;;;;24.36;42.04;101090.63;105285;1297;67439;-84
2023/06/14 12:13:12;;;;;;;;;;;;;;;24.27;42.07;101080.48;105428;1298;71377;-84
2023/06/14 12:15:57;;;;;;;;;;;;;;;24.18;41.97;101075.41;105446;1297;59829;-84
2023/06/14 12:18:43;;;;;;;;;;;;;;;24.07;41.89;101073.97;105435;1297;61025;-84
2023/06/14 12:21:30;;;;;;;;;;;;;;;23.96;41.87;101066.75;105520;1297;75429;-84
2023/06/14 12:24:15;;;;;;;;;;;;;;;23.92;41.85;101061.40;105506;1298;67590;-84
2023/06/14 12:27:04;;;;;;;;;;;;;;;23.93;41.94;101062.89;105434;1298;72885;-85
2023/06/14 12:30:08;;;;;;;;;;;;;;;23.98;41.77;101064.02;105583;1300;59785;-85
2023/06/14 12:32:54;;;;;;;;;;;;;;;23.99;41.61;101058.50;105419;1297;60415;-85
2023/06/14 12:35:40;;;;;;;;;;;;;;;24.03;41.51;101061.02;105342;1297;74189;-85
2023/06/14 12:38:26;;;;;;;;;;;;;;;24.11;41.48;101057.35;105294;1299;67548;-85
2023/06/14 12:41:14;;;;;;;;;;;;;;;24.22;41.40;101053.27;105446;1297;71231;-85
2023/06/14 12:44:03;;;;;;;;;;;;;;;24.26;41.01;101053.94;105368;1297;59962;-85
2023/06/14 12:46:51;;;;;;;;;;;;;;;24.27;41.00;101050.65;105467;1297;60121;-84
2023/06/14 12:49:37;;;;;;;;;;;;;;;24.33;40.96;101051.17;105415;1297;74921;-85
2023/06/14 12:52:22;;;;;;;;;;;;;;;24.30;40.73;101056.65;105469;1298;67261;-85
2023/06/14 12:55:08;;;;;;;;;;;;;;;24.25;40.75;101047.80;105503;1297;71901;-85
2023/06/14 12:57:54;;;;;;;;;;;;;;;24.27;40.81;101046.95;105516;1300;60179;-85
2023/06/14 13:00:40;;;;;;;;;;;;;;;24.31;40.72;101047.79;105414;1297;60286;-85
2023/06/14 13:03:26;;;;;;;;;;;;;;;24.30;40.22;101050.81;105429;1300;75741;-85
2023/06/14 13:06:13;;;;;;;;;;;;;;;24.28;40.16;101049.58;105320;1297;67791;-85
2023/06/14 13:09:00;;;;;;;;;;;;;;;24.14;40.09;101051.30;105389;1298;71420;-85
2023/06/14 13:11:47;;;;;;;;;;;;;;;24.00;39.97;101050.67;105329;1297;59867;-85
2023/06/14 13:14:32;;;;;;;;;;;;;;;23.89;40.06;101043.86;105422;1300;59226;-84
2023/06/14 13:17:18;;;;;;;;;;;;;;;23.74;39.91;101043.91;105408;1297;74634;-84
2023/06/14 13:20:06;;;;;;;;;;;;;;;23.61;39.98;101048.82;105302;1297;67938;-85
2023/06/14 13:22:52;;;;;;;;;;;;;;;23.53;39.93;101046.84;105281;1297;71239;-84
2023/06/14 13:25:38;;;;;;;;;;;;;;;23.43;39.79;101046.77;105401;1300;59845;-84
2023/06/14 13:28:24;;;;;;;;;;;;;;;23.29;40.05;101046.58;105360;1296;59804;-84
2023/06/14 13:31:10;;;;;;;;;;;;;;;23.14;40.05;101044.33;105310;1298;74380;-85
2023/06/14 13:33:56;;;;;;;;;;;;;;;22.99;40.16;101051.79;105308;1297;67394;-85
2023/06/14 13:36:42;;;;;;;;;;;;;;;22.87;40.16;101042.52;105382;1296;71400;-84
2023/06/14 13:39:28;;;;;;;;;;;;;;;22.76;40.10;101041.42;105345;1297;60180;-84
2023/06/14 13:42:14;;;;;;;;;;;;;;;22.67;40.28;101037.55;105433;1297;59867;-85
2023/06/14 13:44:59;;;;;;;;;;;;;;;22.62;40.10;101042.08;105474;1297;74271;-84
2023/06/14 13:47:48;;;;;;;;;;;;;;;22.65;40.22;101041.16;105418;1297;67329;-85
2023/06/14 13:50:34;;;;;;;;;;;;;;;22.74;40.39;101038.15;105279;1298;73300;-84
2023/06/14 13:53:20;;;;;;;;;;;;;;;22.88;40.32;101034.70;105534;1297;59879;-84
2023/06/14 13:56:06;;;;;;;;;;;;;;;23.03;40.21;101035.67;105427;1297;59855;-84
2023/06/14 13:58:53;;;;;;;;;;;;;;;23.15;39.83;101035.02;105414;1298;74089;-84
2023/06/14 14:01:39;;;;;;;;;;;;;;;23.13;39.76;101032.98;105398;1298;67651;-84
2023/06/14 14:04:25;;;;;;;;;;;;;;;23.11;39.91;101030.12;105369;1297;72660;-84
2023/06/14 14:07:11;;;;;;;;;;;;;;;23.12;39.94;101034.09;105448;1297;60260;-84